sensor_id;sensor_type;location;lat;lon;timestamp;pressure;altitude;pressure_sealevel;temperature;humidity
42727;BME280;28372;56.832;60.658;2022-10-23T00:04:06;97797.19;;;5.78;38.42
42727;BME280;28372;56.832;60.658;2022-10-23T00:06:34;97793.09;;;5.68;38.03
42727;BME280;28372;56.832;60.658;2022-10-23T00:09:04;97797.31;;;5.69;38.46
42727;BME280;28372;56.832;60.658;2022-10-23T00:11:33;97814.09;;;5.66;38.47
42727;BME280;28372;56.832;60.658;2022-10-23T00:14:04;97800.47;;;5.71;38.48
42727;BME280;28372;56.832;60.658;2022-10-23T00:16:32;97790.63;;;5.63;39.32
42727;BME280;28372;56.832;60.658;2022-10-23T00:19:00;97798.13;;;5.70;38.30
42727;BME280;28372;56.832;60.658;2022-10-23T00:21:28;97794.53;;;5.65;38.47
42727;BME280;28372;56.832;60.658;2022-10-23T00:23:55;97797.88;;;5.62;38.49
42727;BME280;28372;56.832;60.658;2022-10-23T00:26:23;97804.38;;;5.61;38.60
42727;BME280;28372;56.832;60.658;2022-10-23T00:28:52;97810.97;;;5.64;39.02
42727;BME280;28372;56.832;60.658;2022-10-23T00:31:21;97814.88;;;5.66;38.58
42727;BME280;28372;56.832;60.658;2022-10-23T00:33:50;97813.31;;;5.65;39.00
42727;BME280;28372;56.832;60.658;2022-10-23T00:36:19;97822.91;;;5.66;38.51
42727;BME280;28372;56.832;60.658;2022-10-23T00:38:49;97822.28;;;5.70;38.38
42727;BME280;28372;56.832;60.658;2022-10-23T00:41:22;97833.00;;;5.70;39.00
42727;BME280;28372;56.832;60.658;2022-10-23T00:44:00;97826.16;;;5.72;39.19
42727;BME280;28372;56.832;60.658;2022-10-23T00:46:28;97823.72;;;5.55;38.03
42727;BME280;28372;56.832;60.658;2022-10-23T00:48:57;97828.41;;;5.45;38.40
42727;BME280;28372;56.832;60.658;2022-10-23T00:51:27;97830.53;;;5.52;38.59
42727;BME280;28372;56.832;60.658;2022-10-23T00:53:58;97846.31;;;5.54;38.33
42727;BME280;28372;56.832;60.658;2022-10-23T00:56:46;97833.44;;;5.47;38.83
42727;BME280;28372;56.832;60.658;2022-10-23T00:59:14;97835.69;;;5.45;38.64
42727;BME280;28372;56.832;60.658;2022-10-23T01:01:42;97838.50;;;5.48;39.37
42727;BME280;28372;56.832;60.658;2022-10-23T01:04:10;97841.19;;;5.48;38.33
42727;BME280;28372;56.832;60.658;2022-10-23T01:07:03;97846.41;;;5.70;39.03
42727;BME280;28372;56.832;60.658;2022-10-23T01:09:47;97851.88;;;5.73;39.18
42727;BME280;28372;56.832;60.658;2022-10-23T01:15:54;97848.97;;;5.66;39.57
42727;BME280;28372;56.832;60.658;2022-10-23T01:18:48;97856.34;;;5.69;39.80
42727;BME280;28372;56.832;60.658;2022-10-23T01:21:25;97860.06;;;5.52;37.87
42727;BME280;28372;56.832;60.658;2022-10-23T01:27:00;97872.56;;;5.60;38.69
42727;BME280;28372;56.832;60.658;2022-10-23T01:29:36;97878.28;;;5.59;38.60
42727;BME280;28372;56.832;60.658;2022-10-23T01:32:13;97883.97;;;5.57;38.77
42727;BME280;28372;56.832;60.658;2022-10-23T01:35:06;97887.31;;;5.66;39.10
42727;BME280;28372;56.832;60.658;2022-10-23T01:37:43;97890.59;;;5.60;38.21
42727;BME280;28372;56.832;60.658;2022-10-23T01:40:23;97899.06;;;5.62;38.60
42727;BME280;28372;56.832;60.658;2022-10-23T01:42:58;97899.41;;;5.60;38.64
42727;BME280;28372;56.832;60.658;2022-10-23T01:45:41;97909.59;;;5.67;37.82
42727;BME280;28372;56.832;60.658;2022-10-23T01:48:18;97900.84;;;5.58;38.27
42727;BME280;28372;56.832;60.658;2022-10-23T01:50:48;97901.97;;;5.57;37.98
42727;BME280;28372;56.832;60.658;2022-10-23T01:53:18;97902.97;;;5.52;37.66
42727;BME280;28372;56.832;60.658;2022-10-23T01:55:47;97908.13;;;5.57;37.43
42727;BME280;28372;56.832;60.658;2022-10-23T01:58:21;97903.88;;;5.56;37.86
42727;BME280;28372;56.832;60.658;2022-10-23T02:00:51;97917.28;;;5.56;37.63
42727;BME280;28372;56.832;60.658;2022-10-23T02:03:22;97928.34;;;5.55;37.38
42727;BME280;28372;56.832;60.658;2022-10-23T02:05:50;97910.38;;;5.43;37.40
42727;BME280;28372;56.832;60.658;2022-10-23T02:08:18;97901.28;;;5.35;37.35
42727;BME280;28372;56.832;60.658;2022-10-23T02:10:55;97931.94;;;5.59;38.13
42727;BME280;28372;56.832;60.658;2022-10-23T02:16:25;97926.13;;;5.69;37.76
42727;BME280;28372;56.832;60.658;2022-10-23T02:21:52;97954.19;;;5.72;38.28
42727;BME280;28372;56.832;60.658;2022-10-23T02:24:30;97945.56;;;5.66;38.68
42727;BME280;28372;56.832;60.658;2022-10-23T02:27:10;97945.56;;;5.54;38.25
42727;BME280;28372;56.832;60.658;2022-10-23T02:29:43;97951.28;;;5.52;39.02
42727;BME280;28372;56.832;60.658;2022-10-23T02:32:13;97947.81;;;5.52;38.48
42727;BME280;28372;56.832;60.658;2022-10-23T02:34:41;97951.38;;;5.43;38.36
42727;BME280;28372;56.832;60.658;2022-10-23T02:37:09;97940.31;;;5.45;38.12
42727;BME280;28372;56.832;60.658;2022-10-23T02:39:37;97948.69;;;5.43;38.33
42727;BME280;28372;56.832;60.658;2022-10-23T02:45:02;97964.13;;;5.59;38.96
42727;BME280;28372;56.832;60.658;2022-10-23T02:47:34;97966.03;;;5.46;38.60
42727;BME280;28372;56.832;60.658;2022-10-23T02:50:20;97963.09;;;5.51;38.86
42727;BME280;28372;56.832;60.658;2022-10-23T03:01:10;97970.94;;;5.56;39.18
42727;BME280;28372;56.832;60.658;2022-10-23T03:03:43;97975.75;;;5.51;38.70
42727;BME280;28372;56.832;60.658;2022-10-23T03:06:12;97988.16;;;5.43;37.87
42727;BME280;28372;56.832;60.658;2022-10-23T03:09:01;97984.34;;;5.44;38.46
42727;BME280;28372;56.832;60.658;2022-10-23T03:11:30;97989.59;;;5.40;38.15
42727;BME280;28372;56.832;60.658;2022-10-23T03:13:57;98006.78;;;5.39;38.18
42727;BME280;28372;56.832;60.658;2022-10-23T03:16:25;98004.78;;;5.36;38.38
42727;BME280;28372;56.832;60.658;2022-10-23T03:18:54;98007.13;;;5.38;38.96
42727;BME280;28372;56.832;60.658;2022-10-23T03:21:22;98002.09;;;5.36;38.01
42727;BME280;28372;56.832;60.658;2022-10-23T03:23:52;98011.25;;;5.35;38.10
42727;BME280;28372;56.832;60.658;2022-10-23T03:26:30;98010.81;;;5.33;38.56
42727;BME280;28372;56.832;60.658;2022-10-23T03:28:57;98015.84;;;5.35;39.19
42727;BME280;28372;56.832;60.658;2022-10-23T03:31:25;98015.03;;;5.34;38.07
42727;BME280;28372;56.832;60.658;2022-10-23T03:33:56;98018.06;;;5.32;37.80
42727;BME280;28372;56.832;60.658;2022-10-23T03:36:24;98018.97;;;5.37;37.84
42727;BME280;28372;56.832;60.658;2022-10-23T03:38:52;98029.34;;;5.38;38.10
42727;BME280;28372;56.832;60.658;2022-10-23T03:41:20;98025.09;;;5.37;38.18
42727;BME280;28372;56.832;60.658;2022-10-23T03:43:47;98026.69;;;5.38;37.87
42727;BME280;28372;56.832;60.658;2022-10-23T03:46:15;98034.38;;;5.40;37.98
42727;BME280;28372;56.832;60.658;2022-10-23T03:48:43;98032.03;;;5.38;38.06
42727;BME280;28372;56.832;60.658;2022-10-23T03:51:11;98035.31;;;5.44;37.78
42727;BME280;28372;56.832;60.658;2022-10-23T03:53:39;98040.66;;;5.44;37.98
42727;BME280;28372;56.832;60.658;2022-10-23T03:56:07;98036.44;;;5.43;37.78
42727;BME280;28372;56.832;60.658;2022-10-23T03:58:34;98052.09;;;5.53;37.61
42727;BME280;28372;56.832;60.658;2022-10-23T04:01:02;98049.22;;;5.58;37.62
42727;BME280;28372;56.832;60.658;2022-10-23T04:03:30;98051.09;;;5.58;37.62
42727;BME280;28372;56.832;60.658;2022-10-23T04:05:57;98060.06;;;5.62;37.10
42727;BME280;28372;56.832;60.658;2022-10-23T04:08:25;98067.53;;;5.56;37.20
42727;BME280;28372;56.832;60.658;2022-10-23T04:10:53;98073.38;;;5.58;37.29
42727;BME280;28372;56.832;60.658;2022-10-23T04:13:44;98059.97;;;5.58;37.61
42727;BME280;28372;56.832;60.658;2022-10-23T04:16:11;98069.22;;;5.61;38.28
42727;BME280;28372;56.832;60.658;2022-10-23T04:18:40;98075.81;;;5.63;37.84
42727;BME280;28372;56.832;60.658;2022-10-23T04:21:10;98081.00;;;5.69;39.03
42727;BME280;28372;56.832;60.658;2022-10-23T04:23:38;98082.22;;;5.71;37.95
42727;BME280;28372;56.832;60.658;2022-10-23T04:26:14;98079.66;;;5.75;37.65
42727;BME280;28372;56.832;60.658;2022-10-23T04:28:42;98083.13;;;5.75;37.77
42727;BME280;28372;56.832;60.658;2022-10-23T04:31:09;98089.50;;;5.83;37.95
42727;BME280;28372;56.832;60.658;2022-10-23T04:33:39;98091.09;;;5.84;37.18
42727;BME280;28372;56.832;60.658;2022-10-23T04:36:07;98095.78;;;5.87;36.76
42727;BME280;28372;56.832;60.658;2022-10-23T04:38:35;98098.47;;;5.87;36.02
42727;BME280;28372;56.832;60.658;2022-10-23T04:41:05;98103.50;;;5.89;36.44
42727;BME280;28372;56.832;60.658;2022-10-23T04:43:33;98114.72;;;5.91;36.95
42727;BME280;28372;56.832;60.658;2022-10-23T04:46:02;98100.38;;;5.87;38.12
42727;BME280;28372;56.832;60.658;2022-10-23T04:48:30;98107.53;;;5.82;37.99
42727;BME280;28372;56.832;60.658;2022-10-23T04:51:15;98106.53;;;5.87;38.29
42727;BME280;28372;56.832;60.658;2022-10-23T04:54:18;98111.47;;;5.85;38.43
42727;BME280;28372;56.832;60.658;2022-10-23T04:57:06;98109.22;;;5.87;38.28
42727;BME280;28372;56.832;60.658;2022-10-23T04:59:51;98104.50;;;5.84;42.38
42727;BME280;28372;56.832;60.658;2022-10-23T05:02:19;98108.88;;;5.89;40.58
42727;BME280;28372;56.832;60.658;2022-10-23T05:04:48;98112.13;;;5.94;39.53
42727;BME280;28372;56.832;60.658;2022-10-23T05:07:35;98118.91;;;6.00;39.22
42727;BME280;28372;56.832;60.658;2022-10-23T05:10:26;98113.97;;;6.03;38.88
42727;BME280;28372;56.832;60.658;2022-10-23T05:13:08;98121.03;;;6.07;38.59
42727;BME280;28372;56.832;60.658;2022-10-23T05:15:35;98125.75;;;6.10;38.44
42727;BME280;28372;56.832;60.658;2022-10-23T05:18:14;98121.03;;;6.20;39.63
42727;BME280;28372;56.832;60.658;2022-10-23T05:20:45;98125.41;;;6.12;39.35
42727;BME280;28372;56.832;60.658;2022-10-23T05:23:16;98123.41;;;6.21;39.92
42727;BME280;28372;56.832;60.658;2022-10-23T05:25:53;98117.91;;;6.17;39.12
42727;BME280;28372;56.832;60.658;2022-10-23T05:28:21;98128.19;;;6.15;36.74
42727;BME280;28372;56.832;60.658;2022-10-23T05:30:49;98119.25;;;6.24;37.94
42727;BME280;28372;56.832;60.658;2022-10-23T05:33:16;98124.53;;;6.45;38.21
42727;BME280;28372;56.832;60.658;2022-10-23T05:35:44;98135.16;;;6.66;37.68
42727;BME280;28372;56.832;60.658;2022-10-23T05:38:14;98131.03;;;6.81;37.07
42727;BME280;28372;56.832;60.658;2022-10-23T05:40:43;98136.41;;;6.93;36.48
42727;BME280;28372;56.832;60.658;2022-10-23T05:43:16;98132.75;;;7.14;36.63
42727;BME280;28372;56.832;60.658;2022-10-23T05:46:03;98138.53;;;7.41;36.95
42727;BME280;28372;56.832;60.658;2022-10-23T05:48:53;98137.06;;;7.71;35.03
42727;BME280;28372;56.832;60.658;2022-10-23T05:51:59;98131.31;;;8.01;35.24
42727;BME280;28372;56.832;60.658;2022-10-23T05:54:53;98133.75;;;8.22;33.98
42727;BME280;28372;56.832;60.658;2022-10-23T05:58:00;98124.88;;;8.38;33.89
42727;BME280;28372;56.832;60.658;2022-10-23T06:00:57;98130.28;;;8.54;33.58
42727;BME280;28372;56.832;60.658;2022-10-23T06:04:00;98128.09;;;8.76;32.33
42727;BME280;28372;56.832;60.658;2022-10-23T06:06:56;98115.09;;;9.17;31.46
42727;BME280;28372;56.832;60.658;2022-10-23T06:09:24;98129.75;;;9.35;31.33
42727;BME280;28372;56.832;60.658;2022-10-23T06:11:56;98116.81;;;9.45;31.32
42727;BME280;28372;56.832;60.658;2022-10-23T06:14:23;98117.31;;;9.50;30.39
42727;BME280;28372;56.832;60.658;2022-10-23T06:16:52;98119.94;;;9.66;30.06
42727;BME280;28372;56.832;60.658;2022-10-23T06:19:20;98125.47;;;9.73;30.18
42727;BME280;28372;56.832;60.658;2022-10-23T06:21:52;98121.72;;;9.78;30.00
42727;BME280;28372;56.832;60.658;2022-10-23T06:24:25;98119.75;;;9.98;30.41
42727;BME280;28372;56.832;60.658;2022-10-23T06:26:58;98125.72;;;10.07;29.56
42727;BME280;28372;56.832;60.658;2022-10-23T06:29:46;98123.59;;;10.20;29.44
42727;BME280;28372;56.832;60.658;2022-10-23T06:32:13;98119.78;;;10.44;30.22
42727;BME280;28372;56.832;60.658;2022-10-23T06:34:48;98123.03;;;10.80;29.02
42727;BME280;28372;56.832;60.658;2022-10-23T06:37:15;98133.53;;;10.86;27.74
42727;BME280;28372;56.832;60.658;2022-10-23T06:39:45;98126.19;;;10.86;28.33
42727;BME280;28372;56.832;60.658;2022-10-23T06:42:15;98129.44;;;10.95;27.98
42727;BME280;28372;56.832;60.658;2022-10-23T06:44:56;98122.47;;;10.98;28.17
42727;BME280;28372;56.832;60.658;2022-10-23T06:47:49;98124.41;;;10.97;28.48
42727;BME280;28372;56.832;60.658;2022-10-23T06:50:49;98127.41;;;11.19;28.63
42727;BME280;28372;56.832;60.658;2022-10-23T06:53:23;98124.78;;;11.57;28.10
42727;BME280;28372;56.832;60.658;2022-10-23T06:56:03;98127.34;;;11.80;27.93
42727;BME280;28372;56.832;60.658;2022-10-23T06:58:35;98129.53;;;12.01;27.80
42727;BME280;28372;56.832;60.658;2022-10-23T07:01:12;98140.69;;;12.37;27.25
42727;BME280;28372;56.832;60.658;2022-10-23T07:03:41;98121.78;;;12.44;26.69
42727;BME280;28372;56.832;60.658;2022-10-23T07:06:10;98125.41;;;12.66;26.45
42727;BME280;28372;56.832;60.658;2022-10-23T07:08:38;98136.41;;;12.84;27.61
42727;BME280;28372;56.832;60.658;2022-10-23T07:11:25;98131.50;;;13.05;27.11
42727;BME280;28372;56.832;60.658;2022-10-23T07:13:55;98126.53;;;13.17;26.36
42727;BME280;28372;56.832;60.658;2022-10-23T07:16:23;98123.47;;;13.30;25.86
42727;BME280;28372;56.832;60.658;2022-10-23T07:18:56;98130.53;;;13.42;25.94
42727;BME280;28372;56.832;60.658;2022-10-23T07:21:31;98136.00;;;13.45;25.64
42727;BME280;28372;56.832;60.658;2022-10-23T07:24:23;98122.81;;;13.54;25.42
42727;BME280;28372;56.832;60.658;2022-10-23T07:26:52;98122.44;;;13.63;24.64
42727;BME280;28372;56.832;60.658;2022-10-23T07:29:22;98135.69;;;13.72;24.74
42727;BME280;28372;56.832;60.658;2022-10-23T07:31:50;98134.91;;;13.79;24.19
42727;BME280;28372;56.832;60.658;2022-10-23T07:34:36;98117.84;;;13.85;23.77
42727;BME280;28372;56.832;60.658;2022-10-23T07:37:21;98126.81;;;13.86;23.39
42727;BME280;28372;56.832;60.658;2022-10-23T07:39:49;98133.38;;;13.78;23.08
42727;BME280;28372;56.832;60.658;2022-10-23T07:42:17;98132.97;;;13.76;23.70
42727;BME280;28372;56.832;60.658;2022-10-23T07:44:45;98132.56;;;13.70;23.42
42727;BME280;28372;56.832;60.658;2022-10-23T07:47:12;98127.09;;;13.56;23.40
42727;BME280;28372;56.832;60.658;2022-10-23T07:49:43;98133.66;;;13.47;23.25
42727;BME280;28372;56.832;60.658;2022-10-23T07:52:11;98149.16;;;13.40;23.34
42727;BME280;28372;56.832;60.658;2022-10-23T07:54:59;98149.91;;;13.36;23.02
42727;BME280;28372;56.832;60.658;2022-10-23T07:57:29;98149.84;;;13.26;23.53
42727;BME280;28372;56.832;60.658;2022-10-23T08:00:08;98150.97;;;13.17;23.50
42727;BME280;28372;56.832;60.658;2022-10-23T08:02:39;98159.09;;;13.17;24.01
42727;BME280;28372;56.832;60.658;2022-10-23T08:05:09;98152.34;;;12.90;23.36
42727;BME280;28372;56.832;60.658;2022-10-23T08:07:45;98151.44;;;12.75;23.55
42727;BME280;28372;56.832;60.658;2022-10-23T08:10:13;98145.13;;;12.56;23.70
42727;BME280;28372;56.832;60.658;2022-10-23T08:12:43;98146.09;;;12.33;23.85
42727;BME280;28372;56.832;60.658;2022-10-23T08:15:12;98143.25;;;12.19;24.79
42727;BME280;28372;56.832;60.658;2022-10-23T08:17:50;98145.81;;;12.01;24.31
42727;BME280;28372;56.832;60.658;2022-10-23T08:20:42;98132.53;;;11.92;25.32
42727;BME280;28372;56.832;60.658;2022-10-23T08:23:10;98153.00;;;11.90;26.14
42727;BME280;28372;56.832;60.658;2022-10-23T08:25:39;98137.25;;;11.65;25.35
42727;BME280;28372;56.832;60.658;2022-10-23T08:28:08;98155.22;;;11.46;25.66
42727;BME280;28372;56.832;60.658;2022-10-23T08:30:48;98142.28;;;11.32;25.82
42727;BME280;28372;56.832;60.658;2022-10-23T08:33:17;98140.00;;;11.08;25.46
42727;BME280;28372;56.832;60.658;2022-10-23T08:35:44;98140.59;;;10.94;26.22
42727;BME280;28372;56.832;60.658;2022-10-23T08:38:15;98139.63;;;10.79;26.78
42727;BME280;28372;56.832;60.658;2022-10-23T08:40:46;98146.72;;;10.87;26.33
42727;BME280;28372;56.832;60.658;2022-10-23T08:43:36;98139.06;;;10.66;26.89
42727;BME280;28372;56.832;60.658;2022-10-23T08:46:33;98152.22;;;10.68;26.57
42727;BME280;28372;56.832;60.658;2022-10-23T08:49:49;98139.00;;;10.62;26.58
42727;BME280;28372;56.832;60.658;2022-10-23T08:52:49;98157.09;;;10.58;27.23
42727;BME280;28372;56.832;60.658;2022-10-23T08:55:24;98153.31;;;10.40;27.15
42727;BME280;28372;56.832;60.658;2022-10-23T08:57:57;98146.84;;;10.25;27.13
42727;BME280;28372;56.832;60.658;2022-10-23T09:00:27;98148.59;;;10.14;27.45
42727;BME280;28372;56.832;60.658;2022-10-23T09:02:55;98157.06;;;10.12;27.22
42727;BME280;28372;56.832;60.658;2022-10-23T09:08:43;98150.69;;;10.24;28.02
42727;BME280;28372;56.832;60.658;2022-10-23T09:11:42;98144.38;;;10.16;27.08
42727;BME280;28372;56.832;60.658;2022-10-23T09:14:29;98150.31;;;10.02;28.03
42727;BME280;28372;56.832;60.658;2022-10-23T09:17:26;98148.63;;;9.94;28.18
42727;BME280;28372;56.832;60.658;2022-10-23T09:22:43;98144.94;;;9.43;27.68
42727;BME280;28372;56.832;60.658;2022-10-23T09:25:24;98139.34;;;9.52;28.76
42727;BME280;28372;56.832;60.658;2022-10-23T09:27:56;98141.84;;;9.41;28.95
42727;BME280;28372;56.832;60.658;2022-10-23T09:30:37;98147.72;;;9.28;28.36
42727;BME280;28372;56.832;60.658;2022-10-23T09:33:20;98119.03;;;9.39;28.45
42727;BME280;28372;56.832;60.658;2022-10-23T09:35:59;98140.53;;;9.74;29.18
42727;BME280;28372;56.832;60.658;2022-10-23T09:38:38;98137.66;;;9.44;28.12
42727;BME280;28372;56.832;60.658;2022-10-23T09:41:20;98132.03;;;9.33;28.18
42727;BME280;28372;56.832;60.658;2022-10-23T09:46:42;98139.75;;;9.15;28.52
42727;BME280;28372;56.832;60.658;2022-10-23T09:49:38;98133.72;;;9.22;28.16
42727;BME280;28372;56.832;60.658;2022-10-23T09:54:48;98135.09;;;8.96;29.06
42727;BME280;28372;56.832;60.658;2022-10-23T09:57:39;98133.41;;;8.88;29.40
42727;BME280;28372;56.832;60.658;2022-10-23T10:00:15;98127.75;;;8.77;29.33
42727;BME280;28372;56.832;60.658;2022-10-23T10:03:00;98132.19;;;8.85;29.08
42727;BME280;28372;56.832;60.658;2022-10-23T10:05:42;98126.38;;;8.67;28.92
42727;BME280;28372;56.832;60.658;2022-10-23T10:10:53;98125.63;;;8.86;29.61
42727;BME280;28372;56.832;60.658;2022-10-23T10:16:50;98142.66;;;8.90;29.20
42727;BME280;28372;56.832;60.658;2022-10-23T10:22:46;98148.25;;;8.82;29.72
42727;BME280;28372;56.832;60.658;2022-10-23T10:30:15;98130.63;;;8.36;29.74
42727;BME280;28372;56.832;60.658;2022-10-23T10:38:26;98120.97;;;8.51;30.85
42727;BME280;28372;56.832;60.658;2022-10-23T10:46:37;98138.25;;;8.34;30.73
42727;BME280;28372;56.832;60.658;2022-10-23T10:49:12;98138.69;;;8.20;29.95
42727;BME280;28372;56.832;60.658;2022-10-23T10:55:14;98131.06;;;8.22;30.11
42727;BME280;28372;56.832;60.658;2022-10-23T11:00:47;98139.97;;;7.95;29.98
42727;BME280;28372;56.832;60.658;2022-10-23T11:03:37;98139.63;;;7.96;30.17
42727;BME280;28372;56.832;60.658;2022-10-23T11:06:12;98156.06;;;7.91;30.88
42727;BME280;28372;56.832;60.658;2022-10-23T11:08:43;98145.72;;;8.09;30.14
42727;BME280;28372;56.832;60.658;2022-10-23T11:11:35;98144.13;;;7.92;30.14
42727;BME280;28372;56.832;60.658;2022-10-23T11:14:03;98147.63;;;7.64;31.29
42727;BME280;28372;56.832;60.658;2022-10-23T11:16:34;98142.16;;;7.61;31.41
42727;BME280;28372;56.832;60.658;2022-10-23T11:24:54;98163.16;;;7.55;31.51
42727;BME280;28372;56.832;60.658;2022-10-23T11:33:35;98170.09;;;7.56;31.76
42727;BME280;28372;56.832;60.658;2022-10-23T11:36:16;98165.75;;;7.39;31.98
42727;BME280;28372;56.832;60.658;2022-10-23T11:38:49;98171.81;;;7.36;31.55
42727;BME280;28372;56.832;60.658;2022-10-23T11:41:23;98165.03;;;7.14;31.58
42727;BME280;28372;56.832;60.658;2022-10-23T11:43:56;98153.28;;;7.18;32.91
42727;BME280;28372;56.832;60.658;2022-10-23T11:46:35;98152.81;;;7.16;32.01
42727;BME280;28372;56.832;60.658;2022-10-23T11:49:05;98152.38;;;7.14;32.14
42727;BME280;28372;56.832;60.658;2022-10-23T11:51:46;98157.31;;;7.12;32.16
42727;BME280;28372;56.832;60.658;2022-10-23T11:54:25;98147.13;;;7.06;31.62
42727;BME280;28372;56.832;60.658;2022-10-23T11:57:09;98150.41;;;7.40;32.04
42727;BME280;28372;56.832;60.658;2022-10-23T12:02:43;98152.75;;;7.41;32.74
42727;BME280;28372;56.832;60.658;2022-10-23T12:05:35;98152.66;;;7.37;32.19
42727;BME280;28372;56.832;60.658;2022-10-23T12:08:21;98154.03;;;7.31;32.90
42727;BME280;28372;56.832;60.658;2022-10-23T12:10:49;98145.31;;;7.10;32.43
42727;BME280;28372;56.832;60.658;2022-10-23T12:16:06;98145.53;;;7.17;33.69
42727;BME280;28372;56.832;60.658;2022-10-23T12:18:50;98150.31;;;7.24;33.01
42727;BME280;28372;56.832;60.658;2022-10-23T12:21:23;98154.19;;;7.10;32.74
42727;BME280;28372;56.832;60.658;2022-10-23T12:26:55;98160.53;;;7.30;32.58
42727;BME280;28372;56.832;60.658;2022-10-23T12:29:47;98166.91;;;7.38;32.49
42727;BME280;28372;56.832;60.658;2022-10-23T12:32:42;98161.59;;;7.01;32.55
42727;BME280;28372;56.832;60.658;2022-10-23T12:40:21;98159.50;;;6.82;32.85
42727;BME280;28372;56.832;60.658;2022-10-23T12:42:58;98168.44;;;6.86;33.17
42727;BME280;28372;56.832;60.658;2022-10-23T12:45:31;98163.72;;;6.83;33.47
42727;BME280;28372;56.832;60.658;2022-10-23T12:48:03;98167.41;;;6.66;33.11
42727;BME280;28372;56.832;60.658;2022-10-23T12:50:32;98167.97;;;6.72;33.40
42727;BME280;28372;56.832;60.658;2022-10-23T12:53:02;98171.13;;;6.74;33.54
42727;BME280;28372;56.832;60.658;2022-10-23T12:55:58;98169.66;;;6.89;33.49
42727;BME280;28372;56.832;60.658;2022-10-23T12:58:33;98192.09;;;6.68;33.70
42727;BME280;28372;56.832;60.658;2022-10-23T13:01:05;98171.81;;;6.58;34.01
42727;BME280;28372;56.832;60.658;2022-10-23T13:03:34;98174.69;;;6.53;33.68
42727;BME280;28372;56.832;60.658;2022-10-23T13:06:01;98160.25;;;6.45;33.59
42727;BME280;28372;56.832;60.658;2022-10-23T13:08:39;98176.94;;;6.63;34.22
42727;BME280;28372;56.832;60.658;2022-10-23T13:11:26;98173.38;;;6.47;34.05
42727;BME280;28372;56.832;60.658;2022-10-23T13:13:58;98177.28;;;6.37;33.77
42727;BME280;28372;56.832;60.658;2022-10-23T13:16:25;98159.44;;;6.20;34.41
42727;BME280;28372;56.832;60.658;2022-10-23T13:18:53;98166.94;;;6.27;34.99
42727;BME280;28372;56.832;60.658;2022-10-23T13:21:22;98172.66;;;6.38;34.62
42727;BME280;28372;56.832;60.658;2022-10-23T13:23:51;98158.44;;;6.25;34.11
42727;BME280;28372;56.832;60.658;2022-10-23T13:26:38;98171.91;;;6.49;34.20
42727;BME280;28372;56.832;60.658;2022-10-23T13:29:29;98168.75;;;6.47;34.66
42727;BME280;28372;56.832;60.658;2022-10-23T13:32:11;98162.94;;;6.33;34.91
42727;BME280;28372;56.832;60.658;2022-10-23T13:34:49;98172.56;;;6.34;35.24
42727;BME280;28372;56.832;60.658;2022-10-23T13:37:36;98156.50;;;6.13;35.07
42727;BME280;28372;56.832;60.658;2022-10-23T13:40:06;98170.19;;;6.20;35.30
42727;BME280;28372;56.832;60.658;2022-10-23T13:42:46;98164.16;;;6.23;35.28
42727;BME280;28372;56.832;60.658;2022-10-23T13:45:18;98161.91;;;6.25;35.32
42727;BME280;28372;56.832;60.658;2022-10-23T13:47:46;98159.44;;;6.20;34.93
42727;BME280;28372;56.832;60.658;2022-10-23T13:50:13;98157.19;;;6.22;34.87
42727;BME280;28372;56.832;60.658;2022-10-23T13:52:41;98163.03;;;6.24;34.61
42727;BME280;28372;56.832;60.658;2022-10-23T13:55:22;98149.50;;;6.33;35.23
42727;BME280;28372;56.832;60.658;2022-10-23T13:57:50;98155.53;;;6.17;35.30
42727;BME280;28372;56.832;60.658;2022-10-23T14:00:18;98149.59;;;6.24;35.32
42727;BME280;28372;56.832;60.658;2022-10-23T14:02:45;98147.34;;;6.14;35.58
42727;BME280;28372;56.832;60.658;2022-10-23T14:05:13;98149.81;;;6.19;35.74
42727;BME280;28372;56.832;60.658;2022-10-23T14:07:40;98151.25;;;6.16;35.21
42727;BME280;28372;56.832;60.658;2022-10-23T14:10:08;98151.13;;;6.13;35.89
42727;BME280;28372;56.832;60.658;2022-10-23T14:12:42;98157.34;;;6.26;35.19
42727;BME280;28372;56.832;60.658;2022-10-23T14:15:11;98156.97;;;6.15;35.90
42727;BME280;28372;56.832;60.658;2022-10-23T14:17:40;98138.03;;;6.11;36.05
42727;BME280;28372;56.832;60.658;2022-10-23T14:20:08;98145.56;;;6.18;35.75
42727;BME280;28372;56.832;60.658;2022-10-23T14:22:35;98144.66;;;6.26;35.74
42727;BME280;28372;56.832;60.658;2022-10-23T14:25:04;98135.47;;;6.15;35.87
42727;BME280;28372;56.832;60.658;2022-10-23T14:27:31;98147.34;;;6.14;36.05
42727;BME280;28372;56.832;60.658;2022-10-23T14:29:59;98156.50;;;6.13;35.93
42727;BME280;28372;56.832;60.658;2022-10-23T14:32:26;98134.81;;;6.18;36.22
42727;BME280;28372;56.832;60.658;2022-10-23T14:34:54;98139.75;;;6.28;35.80
42727;BME280;28372;56.832;60.658;2022-10-23T14:37:21;98137.72;;;6.25;35.70
42727;BME280;28372;56.832;60.658;2022-10-23T14:39:49;98138.19;;;6.27;35.32
42727;BME280;28372;56.832;60.658;2022-10-23T14:42:17;98122.84;;;6.28;35.72
42727;BME280;28372;56.832;60.658;2022-10-23T14:44:44;98129.66;;;6.25;35.49
42727;BME280;28372;56.832;60.658;2022-10-23T14:47:12;98134.28;;;6.25;35.36
42727;BME280;28372;56.832;60.658;2022-10-23T14:49:39;98130.47;;;6.26;35.86
42727;BME280;28372;56.832;60.658;2022-10-23T14:52:07;98128.78;;;6.33;35.77
42727;BME280;28372;56.832;60.658;2022-10-23T14:54:34;98130.34;;;6.34;36.15
42727;BME280;28372;56.832;60.658;2022-10-23T14:57:03;98129.59;;;6.34;35.85
42727;BME280;28372;56.832;60.658;2022-10-23T14:59:31;98134.50;;;6.32;35.86
42727;BME280;28372;56.832;60.658;2022-10-23T15:01:58;98128.34;;;6.31;36.48
42727;BME280;28372;56.832;60.658;2022-10-23T15:04:26;98126.91;;;6.34;35.64
42727;BME280;28372;56.832;60.658;2022-10-23T15:06:55;98131.47;;;6.33;35.81
42727;BME280;28372;56.832;60.658;2022-10-23T15:09:22;98119.97;;;6.45;35.87
42727;BME280;28372;56.832;60.658;2022-10-23T15:11:51;98132.84;;;6.40;35.87